Time;durP1;ratioP1;P1;durP2;ratioP2;P2;SDS_P1;SDS_P2;PMS_P1;PMS_P2;Temp;Humidity;BMP_temperature;BMP_pressure;BME280_temperature;BME280_humidity;BME280_pressure;Samples;Min_cycle;Max_cycle;Signal;HPM_P1;HPM_P2
2023/06/15 00:00:59;;;;;;;13.20;10.10;;;16.10;99.90;;;;;;1889418;75;25313;-89
2023/06/15 00:06:32;;;;;;;14.60;10.20;;;15.90;99.90;;;;;;1916193;72;27153;-89
2023/06/15 00:09:21;;;;;;;17.10;10.30;;;15.80;99.90;;;;;;1889629;74;25296;-90
2023/06/15 00:12:10;;;;;;;13.67;9.83;;;15.70;99.90;;;;;;1907975;74;25215;-89
2023/06/15 00:14:59;;;;;;;15.30;10.57;;;15.60;99.90;;;;;;1897417;74;25653;-89
2023/06/15 00:17:48;;;;;;;13.70;10.60;;;15.50;99.90;;;;;;1910058;74;25320;-90
2023/06/15 00:20:37;;;;;;;14.20;9.60;;;15.40;99.90;;;;;;1899792;74;25246;-90
2023/06/15 00:23:26;;;;;;;11.83;9.57;;;15.40;99.90;;;;;;1910912;74;25286;-89
2023/06/15 00:28:57;;;;;;;11.37;9.83;;;15.40;99.90;;;;;;1976773;71;27030;-90
2023/06/15 00:31:46;;;;;;;14.00;9.77;;;15.30;99.90;;;;;;1943706;72;25215;-89
2023/06/15 00:34:35;;;;;;;15.60;9.40;;;15.30;99.90;;;;;;1940458;72;25237;-89
2023/06/15 00:37:24;;;;;;;13.00;9.43;;;15.20;99.90;;;;;;1941386;72;25209;-89
2023/06/15 00:43:02;;;;;;;17.43;9.33;;;14.90;99.90;;;;;;1940399;72;26606;-89
2023/06/15 00:45:51;;;;;;;12.40;9.43;;;14.90;99.90;;;;;;1900905;73;25217;-89
2023/06/15 00:48:40;;;;;;;11.67;9.27;;;14.90;99.90;;;;;;1870725;75;25279;-89
2023/06/15 00:51:29;;;;;;;11.47;9.33;;;15.00;99.90;;;;;;1820044;77;25266;-89
2023/06/15 00:57:05;;;;;;;14.83;9.70;;;14.80;99.90;;;;;;1942366;72;27047;-89
2023/06/15 00:59:54;;;;;;;11.53;9.47;;;14.70;99.90;;;;;;1889559;73;25675;-89
2023/06/15 01:02:44;;;;;;;12.13;9.07;;;14.70;99.90;;;;;;1867853;75;25241;-89
2023/06/15 01:05:34;;;;;;;11.13;8.93;;;14.60;99.90;;;;;;1848799;76;25362;-90
2023/06/15 01:08:24;;;;;;;15.77;9.40;;;14.50;99.90;;;;;;1869441;75;25234;-90
2023/06/15 01:11:13;;;;;;;12.27;8.90;;;14.40;99.90;;;;;;1870275;75;25464;-89
2023/06/15 01:14:04;;;;;;;13.90;8.87;;;14.40;99.90;;;;;;1860549;75;25662;-90
2023/06/15 01:16:57;;;;;;;13.87;8.60;;;14.40;99.90;;;;;;1866143;75;25172;-90
2023/06/15 01:19:57;;;;;;;11.97;8.77;;;14.40;99.90;;;;;;1862823;75;25237;-90
2023/06/15 01:22:49;;;;;;;11.90;8.80;;;14.50;99.90;;;;;;1862420;75;25161;-89
2023/06/15 01:28:20;;;;;;;11.33;8.17;;;14.40;99.90;;;;;;1936564;72;27345;-89
2023/06/15 01:33:52;;;;;;;10.00;7.97;;;14.60;99.90;;;;;;1917216;72;27082;-89
2023/06/15 01:36:40;;;;;;;13.10;7.43;;;14.70;99.90;;;;;;1927975;73;25304;-89
2023/06/15 01:39:29;;;;;;;10.67;8.13;;;14.80;99.90;;;;;;1931908;73;25208;-90
2023/06/15 01:42:18;;;;;;;15.27;8.57;;;14.70;99.90;;;;;;1929899;73;25269;-89
2023/06/15 01:45:10;;;;;;;12.83;7.47;;;14.60;99.90;;;;;;1921461;73;25234;-89
2023/06/15 01:47:59;;;;;;;12.77;7.63;;;14.70;99.90;;;;;;1921071;73;25596;-90
2023/06/15 01:50:50;;;;;;;11.40;7.67;;;14.70;99.90;;;;;;1920192;73;25226;-90
2023/06/15 01:53:39;;;;;;;12.07;7.93;;;14.60;99.90;;;;;;1928188;73;25720;-90
2023/06/15 01:56:28;;;;;;;12.57;8.37;;;14.30;99.90;;;;;;1919864;73;25218;-90
2023/06/15 01:59:16;;;;;;;11.13;7.97;;;14.10;99.90;;;;;;1917155;73;25258;-90
2023/06/15 02:02:06;;;;;;;10.07;8.03;;;14.20;99.90;;;;;;1924380;73;25687;-90
2023/06/15 02:04:55;;;;;;;9.90;7.73;;;14.30;99.90;;;;;;1927684;73;26033;-89
2023/06/15 02:07:43;;;;;;;11.07;7.47;;;14.40;99.90;;;;;;1921477;73;25257;-89
2023/06/15 02:10:32;;;;;;;9.70;7.57;;;14.50;99.90;;;;;;1923964;73;26068;-89
2023/06/15 02:16:08;;;;;;;10.50;7.07;;;14.40;99.90;;;;;;1922762;72;27667;-89
2023/06/15 02:18:56;;;;;;;10.03;7.83;;;14.40;99.90;;;;;;1903439;74;25253;-89
2023/06/15 02:24:26;;;;;;;10.80;7.70;;;14.50;99.90;;;;;;1931634;72;26925;-89
2023/06/15 02:27:14;;;;;;;9.87;8.13;;;14.50;99.90;;;;;;1909029;73;25791;-89
2023/06/15 02:30:03;;;;;;;11.33;7.60;;;14.50;99.90;;;;;;1902149;73;25313;-89
2023/06/15 02:32:52;;;;;;;11.53;7.97;;;14.60;99.90;;;;;;1896957;73;25281;-88
2023/06/15 02:35:41;;;;;;;15.07;7.87;;;14.60;99.90;;;;;;1896365;73;25230;-89
2023/06/15 02:38:29;;;;;;;11.90;7.70;;;14.70;99.90;;;;;;1908685;73;25300;-89
2023/06/15 02:41:18;;;;;;;13.23;8.27;;;14.70;99.90;;;;;;1898362;73;25320;-89
2023/06/15 02:44:07;;;;;;;11.40;7.80;;;14.90;99.90;;;;;;1905232;73;25285;-90
2023/06/15 02:49:37;;;;;;;9.43;7.53;;;14.80;99.90;;;;;;1941226;72;27629;-89
2023/06/15 02:55:07;;;;;;;11.17;8.10;;;14.90;99.90;;;;;;1920182;72;27940;-89
2023/06/15 02:57:56;;;;;;;13.73;7.73;;;15.00;99.90;;;;;;1904489;74;25275;-89
2023/06/15 03:00:48;;;;;;;11.97;8.40;;;15.20;99.90;;;;;;1869691;76;25716;-89
2023/06/15 03:03:35;;;;;;;11.23;7.87;;;15.30;99.90;;;;;;1804397;77;25975;-89
2023/06/15 03:06:24;;;;;;;9.47;8.00;;;15.30;99.90;;;;;;1823792;76;26602;-89
2023/06/15 03:09:14;;;;;;;10.67;8.13;;;15.40;99.90;;;;;;1855198;76;25331;-89
2023/06/15 03:12:02;;;;;;;13.83;8.33;;;15.50;99.90;;;;;;1835696;76;25332;-89
2023/06/15 03:14:51;;;;;;;14.43;9.03;;;15.50;99.90;;;;;;1860781;76;25333;-89
2023/06/15 03:17:41;;;;;;;13.53;8.20;;;15.60;99.90;;;;;;1865808;75;25318;-89
2023/06/15 03:20:32;;;;;;;11.53;8.53;;;15.70;99.90;;;;;;1866883;75;25787;-90
2023/06/15 03:23:20;;;;;;;12.70;8.17;;;15.90;99.90;;;;;;1829854;76;25793;-90
2023/06/15 03:26:10;;;;;;;11.50;7.80;;;16.10;99.90;;;;;;1811533;77;25269;-90
2023/06/15 03:29:00;;;;;;;11.17;8.50;;;16.20;99.90;;;;;;1898665;73;25542;-90
2023/06/15 03:31:50;;;;;;;10.83;7.93;;;16.50;99.90;;;;;;1889208;73;25850;-90
2023/06/15 03:34:40;;;;;;;9.47;7.70;;;16.70;99.90;;;;;;1857819;75;26011;-90
2023/06/15 03:40:11;;;;;;;11.30;7.73;;;17.70;99.90;;;;;;1935103;72;27304;-90
2023/06/15 03:42:59;;;;;;;11.37;7.53;;;18.10;99.90;;;;;;1875837;76;25263;-90
2023/06/15 03:45:48;;;;;;;10.90;7.87;;;18.50;99.90;;;;;;1870237;75;25245;-90
2023/06/15 03:51:27;;;;;;;18.17;8.03;;;19.40;99.90;;;;;;2010550;69;27049;-89
2023/06/15 03:54:15;;;;;;;16.97;7.90;;;19.60;99.90;;;;;;1955414;72;25544;-89
2023/06/15 03:57:05;;;;;;;11.27;7.50;;;20.10;99.90;;;;;;1962569;71;25240;-89
2023/06/15 03:59:54;;;;;;;10.07;7.43;;;20.40;99.90;;;;;;1961387;72;25272;-90
2023/06/15 04:02:43;;;;;;;15.00;7.37;;;20.70;99.90;;;;;;1959496;72;25729;-90
2023/06/15 04:05:31;;;;;;;9.67;7.80;;;21.10;99.90;;;;;;1967394;71;25240;-90
2023/06/15 04:08:20;;;;;;;12.33;7.40;;;21.30;99.90;;;;;;1971087;72;25225;-91
2023/06/15 04:11:08;;;;;;;9.77;7.30;;;21.30;99.90;;;;;;1953691;72;25208;-90
2023/06/15 04:13:57;;;;;;;10.50;7.63;;;21.60;99.90;;;;;;1953685;72;25207;-89
2023/06/15 04:16:45;;;;;;;12.23;7.93;;;21.50;99.90;;;;;;1952183;72;25280;-90
2023/06/15 04:22:14;;;;;;;12.50;7.40;;;22.20;99.90;;;;;;1901708;74;27687;-90
2023/06/15 04:25:04;;;;;;;10.73;7.57;;;22.50;99.90;;;;;;1859469;76;25265;-90
2023/06/15 04:27:53;;;;;;;9.53;7.33;;;22.50;99.90;;;;;;1810415;77;25733;-90
2023/06/15 04:30:44;;;;;;;11.93;7.70;;;22.10;99.90;;;;;;1862132;76;25323;-90
2023/06/15 04:33:32;;;;;;;11.27;7.50;;;21.60;99.90;;;;;;1858406;76;25339;-90
2023/06/15 04:39:11;;;;;;;12.17;7.70;;;21.40;99.90;;;;;;1940438;72;27196;-90
2023/06/15 04:42:00;;;;;;;10.37;7.10;;;21.50;99.90;;;;;;1918157;73;25276;-90
2023/06/15 04:44:49;;;;;;;12.07;7.03;;;21.70;99.90;;;;;;1924611;73;25290;-90
2023/06/15 05:01:05;;;;;;;13.67;7.27;;;22.20;99.90;;;;;;2001092;69;27033;-90
2023/06/15 05:19:48;;;;;;;8.77;7.13;;;22.80;99.90;;;;;;1926588;72;27516;-90
2023/06/15 05:25:38;;;;;;;8.53;6.77;;;22.30;99.90;;;;;;1917734;74;26918;-89
2023/06/15 05:28:31;;;;;;;9.27;7.23;;;22.90;99.90;;;;;;1882880;75;25307;-89
2023/06/15 05:45:32;;;;;;;11.13;6.83;;;23.40;99.90;;;;;;1981229;71;26319;-91
2023/06/15 05:48:21;;;;;;;11.23;6.17;;;23.80;99.90;;;;;;1967169;72;25307;-90
2023/06/15 05:51:09;;;;;;;9.27;6.87;;;24.40;99.90;;;;;;2036540;69;25174;-89
2023/06/15 05:53:57;;;;;;;12.27;6.87;;;24.60;99.90;;;;;;2032040;69;25309;-90
2023/06/15 05:56:46;;;;;;;12.50;6.70;;;24.40;99.90;;;;;;2037938;69;25648;-89
2023/06/15 05:59:35;;;;;;;14.77;6.90;;;25.10;99.90;;;;;;2042604;69;26274;-89
2023/06/15 06:02:24;;;;;;;11.77;7.23;;;24.80;99.90;;;;;;2041903;69;25201;-90
2023/06/15 06:08:28;;;;;;;9.17;6.37;;;24.70;99.90;;;;;;1976266;71;26410;-90
2023/06/15 06:11:17;;;;;;;11.23;6.47;;;24.30;99.90;;;;;;2019745;69;25203;-90
2023/06/15 06:14:06;;;;;;;11.93;6.67;;;24.10;99.90;;;;;;2011617;69;25895;-89
2023/06/15 06:16:54;;;;;;;8.87;6.07;;;24.70;99.90;;;;;;2009619;69;25724;-89
2023/06/15 06:19:43;;;;;;;12.13;6.13;;;25.20;99.90;;;;;;2017752;69;25193;-91
2023/06/15 06:22:32;;;;;;;8.10;6.00;;;25.20;99.90;;;;;;2027906;69;25331;-91
2023/06/15 06:28:40;;;;;;;9.33;5.93;;;24.60;99.90;;;;;;1975298;71;27030;-90
2023/06/15 06:31:28;;;;;;;10.67;6.50;;;24.40;99.90;;;;;;1999000;69;25774;-90
2023/06/15 06:34:16;;;;;;;8.97;6.27;;;23.90;99.90;;;;;;2020749;70;25675;-89
2023/06/15 06:37:06;;;;;;;10.00;5.93;;;23.80;99.90;;;;;;2015150;70;25221;-90
2023/06/15 06:39:54;;;;;;;9.17;6.60;;;24.10;99.90;;;;;;2030708;70;25187;-90
2023/06/15 06:42:43;;;;;;;11.00;6.30;;;24.70;99.90;;;;;;1977060;72;26696;-89
2023/06/15 06:45:32;;;;;;;8.33;6.77;;;25.20;99.90;;;;;;1980004;71;25211;-90
2023/06/15 06:48:21;;;;;;;7.80;7.00;;;24.90;99.90;;;;;;1983112;72;26291;-90
2023/06/15 06:51:09;;;;;;;12.43;7.00;;;25.20;99.90;;;;;;1969192;72;26691;-90
2023/06/15 06:56:51;;;;;;;7.97;5.87;;;25.30;99.90;;;;;;1946171;72;27147;-89
2023/06/15 06:59:39;;;;;;;9.13;6.70;;;25.60;99.90;;;;;;1930720;73;26263;-90
2023/06/15 07:02:28;;;;;;;8.30;6.30;;;25.50;99.90;;;;;;1934416;73;25268;-89
2023/06/15 07:08:36;;;;;;;7.70;6.10;;;25.50;99.90;;;;;;1987909;71;28168;-90
2023/06/15 07:11:26;;;;;;;9.50;6.80;;;25.30;99.90;;;;;;1962459;72;26249;-89
2023/06/15 07:14:15;;;;;;;6.57;5.90;;;25.20;99.90;;;;;;2036320;69;26327;-90
2023/06/15 07:19:44;;;;;;;9.00;6.30;;;25.10;99.90;;;;;;1936441;72;28424;-90
2023/06/15 07:22:32;;;;;;;9.00;6.27;;;25.40;99.90;;;;;;1874668;75;26373;-89
2023/06/15 07:25:21;;;;;;;7.22;6.40;;;25.30;99.90;;;;;;1904269;75;26810;-89
2023/06/15 07:28:10;;;;;;;6.87;6.17;;;25.80;99.90;;;;;;1893364;75;26358;-90
2023/06/15 07:30:58;;;;;;;8.77;6.43;;;26.20;99.90;;;;;;1901687;75;26285;-89
2023/06/15 07:50:15;;;;;;;10.70;6.65;;;27.40;99.90;;;;;;1959405;72;27011;-90
2023/06/15 07:53:03;;;;;;;7.05;6.33;;;27.70;99.90;;;;;;1977087;72;25722;-90
2023/06/15 07:55:52;;;;;;;9.38;6.53;;;27.70;99.90;;;;;;1972175;72;26313;-90
2023/06/15 07:58:41;;;;;;;6.42;5.67;;;27.50;99.90;;;;;;1966709;72;26247;-90
2023/06/15 08:01:30;;;;;;;7.67;5.83;;;27.60;99.90;;;;;;1967075;72;25270;-90
2023/06/15 08:04:19;;;;;;;7.58;5.58;;;27.60;99.90;;;;;;1955173;72;26594;-90
2023/06/15 08:07:09;;;;;;;13.22;6.10;;;27.90;99.90;;;;;;1994296;72;27607;-90
2023/06/15 08:10:00;;;;;;;8.80;6.08;;;28.00;99.90;;;;;;1991948;71;25663;-90
2023/06/15 08:12:48;;;;;;;10.00;5.95;;;28.10;99.90;;;;;;1993517;70;25217;-90
2023/06/15 08:15:37;;;;;;;12.40;5.97;;;28.20;99.90;;;;;;1984453;72;26294;-90
2023/06/15 08:18:26;;;;;;;8.48;5.67;;;28.30;99.90;;;;;;1993537;70;26797;-90
2023/06/15 08:21:17;;;;;;;10.58;5.97;;;28.60;99.90;;;;;;1979506;70;25541;-89
2023/06/15 08:24:05;;;;;;;8.58;6.05;;;28.20;99.90;;;;;;1985289;72;25287;-90
2023/06/15 08:26:54;;;;;;;6.30;5.55;;;28.00;99.90;;;;;;1966591;72;25995;-90
2023/06/15 08:29:44;;;;;;;8.38;5.37;;;28.00;99.90;;;;;;1987168;72;26356;-90
2023/06/15 08:32:40;;;;;;;13.80;5.70;;;28.10;99.90;;;;;;1942346;73;25319;-90
2023/06/15 08:38:22;;;;;;;7.85;5.35;;;28.10;99.90;;;;;;1939167;72;27050;-90
2023/06/15 08:57:32;;;;;;;7.78;5.62;;;28.40;99.90;;;;;;2012305;70;27316;-91
2023/06/15 09:00:22;;;;;;;5.90;4.80;;;28.30;99.90;;;;;;1916026;72;25236;-90
2023/06/15 09:03:13;;;;;;;6.70;5.20;;;27.90;99.90;;;;;;1885745;75;26918;-90
2023/06/15 09:08:48;;;;;;;8.35;4.97;;;27.80;99.90;;;;;;1957722;72;28999;-90
2023/06/15 09:53:34;;;;;;;8.23;5.78;;;28.10;99.90;;;;;;1945932;72;27634;-90
2023/06/15 09:56:23;;;;;;;8.48;5.58;;;28.40;99.90;;;;;;1941942;72;25274;-90
2023/06/15 09:59:12;;;;;;;9.00;5.87;;;28.50;99.90;;;;;;1934420;73;25228;-89
2023/06/15 10:02:03;;;;;;;9.40;5.50;;;29.00;99.90;;;;;;1929382;72;25235;-90
2023/06/15 10:04:52;;;;;;;9.90;5.42;;;28.90;99.90;;;;;;1934134;73;26287;-89
2023/06/15 10:07:45;;;;;;;7.15;5.15;;;29.00;99.90;;;;;;1939295;73;25863;-89
2023/06/15 10:10:37;;;;;;;7.95;5.37;;;29.00;99.90;;;;;;1928569;73;25255;-90
2023/06/15 10:32:37;;;;;;;6.70;4.80;;;28.60;99.90;;;;;;1952156;72;27143;-89
2023/06/15 10:35:29;;;;;;;11.20;5.10;;;28.70;99.90;;;;;;1944901;72;26918;-89
2023/06/15 10:38:24;;;;;;;5.12;4.47;;;28.40;99.90;;;;;;1935687;72;25764;-90
2023/06/15 10:41:14;;;;;;;8.58;4.42;;;28.20;99.90;;;;;;1910340;73;26316;-90
2023/06/15 10:44:05;;;;;;;5.92;4.53;;;28.20;99.90;;;;;;1879285;75;26277;-90
2023/06/15 10:49:36;;;;;;;7.55;4.97;;;28.40;99.90;;;;;;1941148;72;28059;-91
2023/06/15 10:52:26;;;;;;;10.30;4.53;;;28.50;99.90;;;;;;1858927;76;26297;-89
2023/06/15 10:55:15;;;;;;;6.08;4.05;;;28.30;99.90;;;;;;1813701;76;26350;-90
2023/06/15 10:58:17;;;;;;;6.22;4.20;;;28.30;99.90;;;;;;1907736;74;26224;-90
2023/06/15 11:01:10;;;;;;;6.95;4.50;;;28.20;99.90;;;;;;1872881;76;25325;-90
2023/06/15 11:04:00;;;;;;;6.53;4.33;;;28.10;99.90;;;;;;1863965;76;26242;-90
2023/06/15 11:06:59;;;;;;;4.50;4.10;;;28.20;99.90;;;;;;1832192;76;26594;-90
2023/06/15 11:09:48;;;;;;;9.45;4.62;;;28.30;99.90;;;;;;1831642;76;26347;-90
2023/06/15 11:12:38;;;;;;;5.33;4.42;;;28.40;99.90;;;;;;1821610;78;25375;-90
2023/06/15 11:15:32;;;;;;;7.67;4.20;;;28.50;99.90;;;;;;1845965;76;25220;-90
2023/06/15 11:18:21;;;;;;;5.65;4.30;;;28.40;99.90;;;;;;1865456;76;26169;-90
2023/06/15 11:23:58;;;;;;;10.65;4.30;;;28.20;99.90;;;;;;2024261;69;28336;-90
2023/06/15 11:42:35;;;;;;;6.83;4.10;;;28.20;99.90;;;;;;1947751;72;27995;-91
2023/06/15 11:59:21;;;;;;;11.45;4.20;;;27.80;99.90;;;;;;1867429;74;27742;-92
2023/06/15 12:26:02;;;;;;;5.45;3.95;;;27.50;99.90;;;;;;1869443;75;28218;-90
2023/06/15 12:31:36;;;;;;;5.47;4.05;;;27.50;99.90;;;;;;1968513;72;27885;-90
2023/06/15 12:34:27;;;;;;;3.98;3.58;;;27.50;99.90;;;;;;1938449;73;26305;-90
2023/06/15 12:37:16;;;;;;;5.08;3.67;;;27.90;99.90;;;;;;1886070;75;25348;-91
2023/06/15 12:40:09;;;;;;;7.33;4.12;;;27.80;99.90;;;;;;1938490;73;25243;-91
2023/06/15 12:45:52;;;;;;;8.25;4.17;;;27.40;99.90;;;;;;1946629;72;28102;-90
2023/06/15 12:48:41;;;;;;;4.33;3.93;;;27.30;99.90;;;;;;1916433;73;26340;-90
2023/06/15 12:51:29;;;;;;;4.57;4.17;;;27.30;99.90;;;;;;1919144;73;26326;-90
2023/06/15 12:57:04;;;;;;;7.72;4.30;;;27.30;99.90;;;;;;1940713;72;28122;-90
2023/06/15 12:59:53;;;;;;;6.30;4.03;;;27.10;99.90;;;;;;1923186;72;25318;-90
2023/06/15 13:02:42;;;;;;;9.70;4.40;;;27.00;99.90;;;;;;1930608;72;26290;-90
2023/06/15 13:05:31;;;;;;;5.97;4.30;;;27.00;99.90;;;;;;1904934;72;25355;-90
2023/06/15 13:08:20;;;;;;;9.53;4.42;;;27.30;99.90;;;;;;1894994;75;26231;-90
2023/06/15 13:11:18;;;;;;;6.87;4.45;;;27.50;99.90;;;;;;1892364;75;25250;-91
2023/06/15 13:14:08;;;;;;;7.08;4.20;;;27.70;99.90;;;;;;1872354;76;25239;-91
2023/06/15 13:16:57;;;;;;;5.75;3.80;;;27.70;99.90;;;;;;1859175;76;26366;-91
2023/06/15 13:19:48;;;;;;;5.78;4.20;;;27.60;99.90;;;;;;1830138;76;25774;-91
2023/06/15 13:23:01;;;;;;;6.85;3.83;;;27.30;99.90;;;;;;1869380;75;25736;-91
2023/06/15 13:25:50;;;;;;;13.83;4.67;;;27.00;99.90;;;;;;1867793;76;26837;-91
2023/06/15 13:28:39;;;;;;;6.70;4.28;;;26.70;99.90;;;;;;1889719;75;26696;-91
2023/06/15 13:31:29;;;;;;;6.20;4.00;;;26.80;99.90;;;;;;1896461;75;26241;-91
2023/06/15 13:34:18;;;;;;;4.80;4.30;;;26.80;99.90;;;;;;1886392;75;25164;-90
2023/06/15 14:17:22;;;;;;;5.40;3.62;;;27.10;99.90;;;;;;1994389;71;28020;-90
2023/06/15 15:14:20;;;;;;;7.53;4.00;;;26.90;99.90;;;;;;1876475;75;27115;-89
2023/06/15 15:20:21;;;;;;;5.70;4.10;;;27.40;99.90;;;;;;1914461;73;32907;-90
2023/06/15 15:23:29;;;;;;;7.75;4.03;;;27.20;99.90;;;;;;1906580;75;26203;-89
2023/06/15 15:26:53;;;;;;;5.70;4.43;;;27.00;99.90;;;;;;1899485;74;26326;-89
2023/06/15 15:29:41;;;;;;;6.97;4.20;;;27.00;99.90;;;;;;1883636;75;26282;-90
2023/06/15 15:32:30;;;;;;;9.03;4.45;;;27.10;99.90;;;;;;1895592;74;25619;-89
2023/06/15 15:35:22;;;;;;;5.28;4.42;;;27.20;99.90;;;;;;1899878;74;26341;-89
2023/06/15 17:46:19;;;;;;;7.58;4.90;;;26.80;99.90;;;;;;1945500;72;27530;-89
2023/06/15 17:49:15;;;;;;;6.40;4.87;;;26.90;99.90;;;;;;1938160;73;26404;-89
2023/06/15 17:52:06;;;;;;;6.90;5.23;;;26.70;99.90;;;;;;1895435;73;26489;-89
2023/06/15 17:58:19;;;;;;;8.73;5.08;;;26.40;99.90;;;;;;1993274;71;27361;-89
2023/06/15 18:04:03;;;;;;;5.80;4.77;;;25.70;99.90;;;;;;1947602;72;27981;-89
2023/06/15 18:06:50;;;;;;;7.50;5.13;;;25.50;99.90;;;;;;1932304;72;26579;-89
2023/06/15 18:09:39;;;;;;;6.80;5.50;;;25.50;99.90;;;;;;1930761;72;26266;-89
2023/06/15 18:12:29;;;;;;;10.87;5.50;;;25.60;99.90;;;;;;1936414;72;26257;-89
2023/06/15 18:15:18;;;;;;;6.30;5.03;;;25.50;99.90;;;;;;1937370;73;26301;-89
2023/06/15 18:18:06;;;;;;;6.83;4.93;;;25.50;99.90;;;;;;1936964;73;26252;-89
2023/06/15 18:20:58;;;;;;;6.10;4.97;;;25.50;99.90;;;;;;1932535;73;26909;-89
2023/06/15 18:23:47;;;;;;;11.43;5.30;;;25.40;99.90;;;;;;1923040;72;26296;-91
2023/06/15 19:52:39;;;;;;;10.70;5.93;;;22.90;99.90;;;;;;1945361;72;28232;-89
2023/06/15 19:55:27;;;;;;;9.40;6.33;;;22.60;99.90;;;;;;1921204;73;25284;-90
2023/06/15 19:58:20;;;;;;;9.97;5.67;;;22.40;99.90;;;;;;1915941;73;25248;-89
2023/06/15 20:01:10;;;;;;;9.50;6.23;;;22.30;99.90;;;;;;1916240;73;25680;-89
2023/06/15 20:03:59;;;;;;;11.70;6.27;;;22.00;99.90;;;;;;1923575;73;25865;-89
2023/06/15 20:09:35;;;;;;;10.73;6.37;;;21.70;99.90;;;;;;1933721;72;27472;-90
2023/06/15 20:12:26;;;;;;;8.83;6.17;;;21.50;99.90;;;;;;1912500;75;25672;-89
2023/06/15 20:15:16;;;;;;;11.30;5.97;;;21.40;99.90;;;;;;1881311;75;25683;-90
2023/06/15 20:18:23;;;;;;;9.23;5.80;;;21.20;99.90;;;;;;1903618;74;25174;-90
2023/06/15 20:21:14;;;;;;;8.77;6.07;;;21.10;99.90;;;;;;1906177;75;25669;-90
2023/06/15 20:27:22;;;;;;;9.70;6.40;;;20.70;99.90;;;;;;1906929;74;25198;-90
2023/06/15 20:30:17;;;;;;;12.33;6.77;;;20.50;99.90;;;;;;1914999;74;25724;-90
2023/06/15 20:37:04;;;;;;;14.90;6.67;;;20.20;99.90;;;;;;1914499;73;25642;-90
2023/06/15 20:48:04;;;;;;;14.43;6.70;;;19.80;99.90;;;;;;1979018;71;26330;-90
2023/06/15 20:54:48;;;;;;;11.33;6.93;;;19.40;99.90;;;;;;1985232;71;27033;-90
2023/06/15 20:57:37;;;;;;;12.20;6.90;;;19.10;99.90;;;;;;2023036;70;25248;-90
2023/06/15 21:03:21;;;;;;;15.83;6.93;;;18.90;99.90;;;;;;1947593;72;26962;-90
2023/06/15 21:06:11;;;;;;;19.10;6.87;;;18.80;99.90;;;;;;1926527;73;25625;-90
2023/06/15 21:09:17;;;;;;;17.23;7.63;;;18.70;99.90;;;;;;1920070;73;25248;-89
2023/06/15 21:12:08;;;;;;;13.03;6.63;;;18.50;99.90;;;;;;1927348;73;25287;-89
2023/06/15 21:14:57;;;;;;;14.23;7.23;;;18.40;99.90;;;;;;1937807;73;25204;-89
2023/06/15 21:17:47;;;;;;;13.70;7.03;;;18.30;99.90;;;;;;1931671;72;25249;-90
2023/06/15 21:20:37;;;;;;;11.67;7.20;;;18.20;99.90;;;;;;1918477;73;25182;-89
2023/06/15 21:23:27;;;;;;;15.80;7.17;;;18.20;99.90;;;;;;1865333;76;25736;-89
2023/06/15 21:26:16;;;;;;;11.17;6.30;;;18.10;99.90;;;;;;1921105;73;25275;-90
2023/06/15 21:29:05;;;;;;;15.17;7.30;;;18.10;99.90;;;;;;1935897;72;25677;-89
2023/06/15 21:31:54;;;;;;;9.80;6.77;;;18.00;99.90;;;;;;1929642;72;25405;-89
2023/06/15 21:53:59;;;;;;;11.57;7.17;;;17.00;99.90;;;;;;1929815;72;26988;-89
2023/06/15 21:56:51;;;;;;;12.37;7.70;;;16.90;99.90;;;;;;1889191;75;25763;-89
2023/06/15 21:59:41;;;;;;;11.37;7.87;;;16.80;99.90;;;;;;1878634;75;25286;-89
2023/06/15 22:02:30;;;;;;;12.93;7.80;;;16.70;99.90;;;;;;1887905;75;25206;-89
2023/06/15 22:05:20;;;;;;;14.17;7.93;;;16.60;99.90;;;;;;1884431;73;25236;-89
2023/06/15 22:08:09;;;;;;;14.10;7.40;;;16.50;99.90;;;;;;1891923;75;25166;-89
2023/06/15 22:13:44;;;;;;;14.70;6.70;;;16.40;99.90;;;;;;1947751;71;26611;-89
2023/06/15 22:19:30;;;;;;;10.97;7.20;;;16.10;99.90;;;;;;1960688;72;26708;-89
2023/06/15 22:22:19;;;;;;;12.23;7.83;;;16.10;99.90;;;;;;1937143;73;25228;-89
2023/06/15 22:25:10;;;;;;;13.37;7.40;;;16.00;99.90;;;;;;1917626;73;25187;-89
2023/06/15 22:27:59;;;;;;;11.50;6.80;;;16.00;99.90;;;;;;1943792;72;25212;-89
2023/06/15 22:30:47;;;;;;;12.43;7.33;;;16.00;99.90;;;;;;1910647;73;25169;-89
2023/06/15 22:33:36;;;;;;;14.03;7.50;;;16.00;99.90;;;;;;1947989;73;25621;-89
2023/06/15 22:36:25;;;;;;;11.77;6.87;;;15.90;99.90;;;;;;1936609;73;25362;-89
2023/06/15 22:39:14;;;;;;;11.13;7.43;;;15.80;99.90;;;;;;1942447;73;25743;-89
2023/06/15 22:47:49;;;;;;;11.53;7.20;;;15.70;99.90;;;;;;1991647;71;26677;-90
2023/06/15 22:50:39;;;;;;;9.30;6.80;;;15.60;99.90;;;;;;1954249;72;25249;-90
2023/06/15 22:53:29;;;;;;;16.77;7.13;;;15.50;99.90;;;;;;2002044;71;25264;-90
2023/06/15 22:56:20;;;;;;;10.50;6.90;;;15.50;99.90;;;;;;2046001;69;25784;-90
2023/06/15 22:59:10;;;;;;;11.80;7.67;;;15.40;99.90;;;;;;2031511;69;25217;-90
2023/06/15 23:02:02;;;;;;;11.70;7.50;;;15.40;99.90;;;;;;2042940;69;25218;-90
2023/06/15 23:04:54;;;;;;;14.23;7.00;;;15.40;99.90;;;;;;2039709;69;25189;-90
2023/06/15 23:10:35;;;;;;;14.17;7.53;;;15.30;99.90;;;;;;1950706;72;27044;-89
2023/06/15 23:13:27;;;;;;;13.27;7.50;;;15.10;99.90;;;;;;1948275;73;25185;-89
2023/06/15 23:16:15;;;;;;;11.30;7.30;;;15.10;99.90;;;;;;1958646;72;25244;-89
2023/06/15 23:19:04;;;;;;;13.20;7.30;;;15.10;99.90;;;;;;1957310;72;25260;-90
2023/06/15 23:21:53;;;;;;;10.63;7.43;;;15.10;99.90;;;;;;1942081;73;25189;-90
2023/06/15 23:24:44;;;;;;;11.10;7.17;;;15.00;99.90;;;;;;1940636;72;25208;-90
2023/06/15 23:27:34;;;;;;;15.30;7.53;;;14.90;99.90;;;;;;1963188;72;25223;-90
2023/06/15 23:30:23;;;;;;;12.60;7.70;;;14.80;99.90;;;;;;1958884;73;25336;-90
2023/06/15 23:33:12;;;;;;;12.30;7.70;;;14.90;99.90;;;;;;1942370;72;25214;-90
2023/06/15 23:36:01;;;;;;;13.33;7.83;;;14.70;99.90;;;;;;1956913;72;25256;-90
2023/06/15 23:38:57;;;;;;;11.43;6.83;;;14.60;99.90;;;;;;1949442;72;25707;-90
2023/06/15 23:44:26;;;;;;;9.80;7.20;;;14.60;99.90;;;;;;1921654;72;27100;-87
2023/06/15 23:50:16;;;;;;;16.17;7.60;;;14.50;99.90;;;;;;1953807;72;27130;-90
2023/06/15 23:56:03;;;;;;;11.27;7.40;;;14.30;99.90;;;;;;1953118;72;28221;-90
